<?xml version="1.0" encoding="UTF-8" standalone="no" ?>
<gpx xmlns="http://www.topografix.com/GPX/1/1" xmlns:xsi="http://www.w3.org/2001/XMLSchema-instance" xsi:schemaLocation="http://www.topografix.com/GPX/1/1 http://www.topografix.com/GPX/1/1/gpx.xsd" version="1.1" creator="VisuGPX - https://www.visugpx.com">
  <metadata>
    <name>rando les pennes du 19042014</name>
    <desc><![CDATA[boucle marche nordique]]></desc>
  </metadata>
  <trk>
    <name><![CDATA[19 avr. 2014]]></name>
    <cmt><![CDATA[08:57:04]]></cmt>
    <desc><![CDATA[comment ...]]></desc>
    <trkseg>
      <trkpt lat="43.41657" lon="5.31692">
        <ele>158</ele>
        <time>2014-04-19T08:57:05Z</time>
      </trkpt>
      <trkpt lat="43.41658" lon="5.31691">
        <ele>158</ele>
        <time>2014-04-19T08:57:06Z</time>
      </trkpt>
      <trkpt lat="43.41642" lon="5.31693">
        <ele>161</ele>
        <time>2014-04-19T08:57:29Z</time>
      </trkpt>
      <trkpt lat="43.41659" lon="5.31695">
        <ele>127</ele>
        <time>2014-04-19T09:02:21Z</time>
      </trkpt>
      <trkpt lat="43.41666" lon="5.31684">
        <ele>133</ele>
        <time>2014-04-19T09:02:32Z</time>
      </trkpt>
      <trkpt lat="43.41682" lon="5.31669">
        <ele>142</ele>
        <time>2014-04-19T09:02:53Z</time>
      </trkpt>
      <trkpt lat="43.4169" lon="5.3166">
        <ele>146</ele>
        <time>2014-04-19T09:03:05Z</time>
      </trkpt>
      <trkpt lat="43.41699" lon="5.31653">
        <ele>149</ele>
        <time>2014-04-19T09:03:16Z</time>
      </trkpt>
      <trkpt lat="43.41709" lon="5.31646">
        <ele>153</ele>
        <time>2014-04-19T09:03:24Z</time>
      </trkpt>
      <trkpt lat="43.41719" lon="5.31641">
        <ele>155</ele>
        <time>2014-04-19T09:03:34Z</time>
      </trkpt>
      <trkpt lat="43.4173" lon="5.31637">
        <ele>158</ele>
        <time>2014-04-19T09:03:44Z</time>
      </trkpt>
      <trkpt lat="43.4174" lon="5.3163">
        <ele>163</ele>
        <time>2014-04-19T09:03:54Z</time>
      </trkpt>
      <trkpt lat="43.4175" lon="5.31621">
        <ele>166</ele>
        <time>2014-04-19T09:04:05Z</time>
      </trkpt>
      <trkpt lat="43.41762" lon="5.31615">
        <ele>168</ele>
        <time>2014-04-19T09:04:17Z</time>
      </trkpt>
      <trkpt lat="43.41806" lon="5.31587">
        <ele>173</ele>
        <time>2014-04-19T09:04:53Z</time>
      </trkpt>
      <trkpt lat="43.41849" lon="5.31562">
        <ele>174</ele>
        <time>2014-04-19T09:05:28Z</time>
      </trkpt>
      <trkpt lat="43.41869" lon="5.31556">
        <ele>172</ele>
        <time>2014-04-19T09:05:45Z</time>
      </trkpt>
      <trkpt lat="43.4188" lon="5.31557">
        <ele>172</ele>
        <time>2014-04-19T09:05:54Z</time>
      </trkpt>
      <trkpt lat="43.41925" lon="5.31554">
        <ele>168</ele>
        <time>2014-04-19T09:06:29Z</time>
      </trkpt>
      <trkpt lat="43.41965" lon="5.31554">
        <ele>163</ele>
        <time>2014-04-19T09:07:00Z</time>
      </trkpt>
      <trkpt lat="43.41995" lon="5.31559">
        <ele>164</ele>
        <time>2014-04-19T09:07:24Z</time>
      </trkpt>
      <trkpt lat="43.42004" lon="5.31552">
        <ele>165</ele>
        <time>2014-04-19T09:07:33Z</time>
      </trkpt>
      <trkpt lat="43.42012" lon="5.31524">
        <ele>166</ele>
        <time>2014-04-19T09:07:50Z</time>
      </trkpt>
      <trkpt lat="43.42014" lon="5.31476">
        <ele>165</ele>
        <time>2014-04-19T09:08:21Z</time>
      </trkpt>
      <trkpt lat="43.42019" lon="5.3141">
        <ele>160</ele>
        <time>2014-04-19T09:08:58Z</time>
      </trkpt>
      <trkpt lat="43.42026" lon="5.31354">
        <ele>156</ele>
        <time>2014-04-19T09:09:28Z</time>
      </trkpt>
      <trkpt lat="43.42028" lon="5.313">
        <ele>153</ele>
        <time>2014-04-19T09:10:00Z</time>
      </trkpt>
      <trkpt lat="43.42025" lon="5.31288">
        <ele>153</ele>
        <time>2014-04-19T09:10:07Z</time>
      </trkpt>
      <trkpt lat="43.42044" lon="5.31243">
        <ele>157</ele>
        <time>2014-04-19T09:10:43Z</time>
      </trkpt>
      <trkpt lat="43.42051" lon="5.31218">
        <ele>159</ele>
        <time>2014-04-19T09:11:00Z</time>
      </trkpt>
      <trkpt lat="43.42054" lon="5.31202">
        <ele>162</ele>
        <time>2014-04-19T09:11:10Z</time>
      </trkpt>
      <trkpt lat="43.42075" lon="5.31152">
        <ele>165</ele>
        <time>2014-04-19T09:11:44Z</time>
      </trkpt>
      <trkpt lat="43.42101" lon="5.31092">
        <ele>168</ele>
        <time>2014-04-19T09:12:21Z</time>
      </trkpt>
      <trkpt lat="43.42113" lon="5.31072">
        <ele>169</ele>
        <time>2014-04-19T09:12:38Z</time>
      </trkpt>
      <trkpt lat="43.42155" lon="5.31052">
        <ele>169</ele>
        <time>2014-04-19T09:13:09Z</time>
      </trkpt>
      <trkpt lat="43.42192" lon="5.31028">
        <ele>158</ele>
        <time>2014-04-19T09:13:46Z</time>
      </trkpt>
      <trkpt lat="43.42223" lon="5.31004">
        <ele>155</ele>
        <time>2014-04-19T09:14:24Z</time>
      </trkpt>
      <trkpt lat="43.42261" lon="5.30974">
        <ele>155</ele>
        <time>2014-04-19T09:15:02Z</time>
      </trkpt>
      <trkpt lat="43.4228" lon="5.30961">
        <ele>156</ele>
        <time>2014-04-19T09:15:23Z</time>
      </trkpt>
      <trkpt lat="43.42287" lon="5.30948">
        <ele>154</ele>
        <time>2014-04-19T09:15:31Z</time>
      </trkpt>
      <trkpt lat="43.42286" lon="5.30932">
        <ele>150</ele>
        <time>2014-04-19T09:15:40Z</time>
      </trkpt>
      <trkpt lat="43.42284" lon="5.30907">
        <ele>132</ele>
        <time>2014-04-19T09:16:00Z</time>
      </trkpt>
      <trkpt lat="43.42246" lon="5.30887">
        <ele>127</ele>
        <time>2014-04-19T09:16:37Z</time>
      </trkpt>
      <trkpt lat="43.42228" lon="5.30875">
        <ele>124</ele>
        <time>2014-04-19T09:16:51Z</time>
      </trkpt>
      <trkpt lat="43.42235" lon="5.30853">
        <ele>127</ele>
        <time>2014-04-19T09:17:09Z</time>
      </trkpt>
      <trkpt lat="43.42263" lon="5.30833">
        <ele>127</ele>
        <time>2014-04-19T09:17:44Z</time>
      </trkpt>
      <trkpt lat="43.42292" lon="5.30808">
        <ele>127</ele>
        <time>2014-04-19T09:18:14Z</time>
      </trkpt>
      <trkpt lat="43.42321" lon="5.30784">
        <ele>130</ele>
        <time>2014-04-19T09:18:44Z</time>
      </trkpt>
      <trkpt lat="43.42348" lon="5.30731">
        <ele>123</ele>
        <time>2014-04-19T09:19:18Z</time>
      </trkpt>
      <trkpt lat="43.42362" lon="5.30712">
        <ele>119</ele>
        <time>2014-04-19T09:19:37Z</time>
      </trkpt>
      <trkpt lat="43.42372" lon="5.30708">
        <ele>118</ele>
        <time>2014-04-19T09:19:47Z</time>
      </trkpt>
      <trkpt lat="43.42407" lon="5.30723">
        <ele>102</ele>
        <time>2014-04-19T09:20:22Z</time>
      </trkpt>
      <trkpt lat="43.42422" lon="5.30711">
        <ele>100</ele>
        <time>2014-04-19T09:20:49Z</time>
      </trkpt>
      <trkpt lat="43.42422" lon="5.30687">
        <ele>96</ele>
        <time>2014-04-19T09:21:02Z</time>
      </trkpt>
      <trkpt lat="43.42428" lon="5.3068">
        <ele>91</ele>
        <time>2014-04-19T09:22:04Z</time>
      </trkpt>
      <trkpt lat="43.42457" lon="5.30659">
        <ele>92</ele>
        <time>2014-04-19T09:22:34Z</time>
      </trkpt>
      <trkpt lat="43.42486" lon="5.30644">
        <ele>92</ele>
        <time>2014-04-19T09:23:05Z</time>
      </trkpt>
      <trkpt lat="43.42523" lon="5.30627">
        <ele>91</ele>
        <time>2014-04-19T09:23:36Z</time>
      </trkpt>
      <trkpt lat="43.42557" lon="5.30609">
        <ele>91</ele>
        <time>2014-04-19T09:24:05Z</time>
      </trkpt>
      <trkpt lat="43.42561" lon="5.30601">
        <ele>91</ele>
        <time>2014-04-19T09:24:13Z</time>
      </trkpt>
      <trkpt lat="43.42565" lon="5.30572">
        <ele>91</ele>
        <time>2014-04-19T09:24:29Z</time>
      </trkpt>
      <trkpt lat="43.42566" lon="5.30517">
        <ele>91</ele>
        <time>2014-04-19T09:25:03Z</time>
      </trkpt>
      <trkpt lat="43.42582" lon="5.30461">
        <ele>90</ele>
        <time>2014-04-19T09:25:34Z</time>
      </trkpt>
      <trkpt lat="43.42591" lon="5.304">
        <ele>89</ele>
        <time>2014-04-19T09:26:07Z</time>
      </trkpt>
      <trkpt lat="43.42599" lon="5.30342">
        <ele>88</ele>
        <time>2014-04-19T09:26:39Z</time>
      </trkpt>
      <trkpt lat="43.42598" lon="5.3029">
        <ele>87</ele>
        <time>2014-04-19T09:27:11Z</time>
      </trkpt>
      <trkpt lat="43.42597" lon="5.30229">
        <ele>87</ele>
        <time>2014-04-19T09:27:44Z</time>
      </trkpt>
      <trkpt lat="43.42602" lon="5.30171">
        <ele>87</ele>
        <time>2014-04-19T09:28:14Z</time>
      </trkpt>
      <trkpt lat="43.42615" lon="5.30105">
        <ele>86</ele>
        <time>2014-04-19T09:28:45Z</time>
      </trkpt>
      <trkpt lat="43.4263" lon="5.30056">
        <ele>85</ele>
        <time>2014-04-19T09:29:19Z</time>
      </trkpt>
      <trkpt lat="43.42639" lon="5.30038">
        <ele>84</ele>
        <time>2014-04-19T09:29:38Z</time>
      </trkpt>
      <trkpt lat="43.42642" lon="5.30006">
        <ele>81</ele>
        <time>2014-04-19T09:30:03Z</time>
      </trkpt>
      <trkpt lat="43.42641" lon="5.29995">
        <ele>81</ele>
        <time>2014-04-19T09:30:09Z</time>
      </trkpt>
      <trkpt lat="43.42645" lon="5.29961">
        <ele>74</ele>
        <time>2014-04-19T09:30:23Z</time>
      </trkpt>
      <trkpt lat="43.42641" lon="5.29952">
        <ele>71</ele>
        <time>2014-04-19T09:30:27Z</time>
      </trkpt>
      <trkpt lat="43.42612" lon="5.29917">
        <ele>61</ele>
        <time>2014-04-19T09:30:54Z</time>
      </trkpt>
      <trkpt lat="43.4261" lon="5.29907">
        <ele>58</ele>
        <time>2014-04-19T09:31:00Z</time>
      </trkpt>
      <trkpt lat="43.42604" lon="5.29899">
        <ele>57</ele>
        <time>2014-04-19T09:31:07Z</time>
      </trkpt>
      <trkpt lat="43.42572" lon="5.29884">
        <ele>51</ele>
        <time>2014-04-19T09:31:31Z</time>
      </trkpt>
      <trkpt lat="43.42565" lon="5.29865">
        <ele>50</ele>
        <time>2014-04-19T09:31:46Z</time>
      </trkpt>
      <trkpt lat="43.42553" lon="5.29814">
        <ele>48</ele>
        <time>2014-04-19T09:32:18Z</time>
      </trkpt>
      <trkpt lat="43.42547" lon="5.29756">
        <ele>47</ele>
        <time>2014-04-19T09:32:48Z</time>
      </trkpt>
      <trkpt lat="43.42539" lon="5.29736">
        <ele>47</ele>
        <time>2014-04-19T09:33:04Z</time>
      </trkpt>
      <trkpt lat="43.42525" lon="5.29682">
        <ele>46</ele>
        <time>2014-04-19T09:33:35Z</time>
      </trkpt>
      <trkpt lat="43.42506" lon="5.29626">
        <ele>44</ele>
        <time>2014-04-19T09:34:11Z</time>
      </trkpt>
      <trkpt lat="43.42503" lon="5.29617">
        <ele>44</ele>
        <time>2014-04-19T09:34:18Z</time>
      </trkpt>
      <trkpt lat="43.42497" lon="5.29612">
        <ele>44</ele>
        <time>2014-04-19T09:34:28Z</time>
      </trkpt>
      <trkpt lat="43.42488" lon="5.29613">
        <ele>44</ele>
        <time>2014-04-19T09:34:34Z</time>
      </trkpt>
      <trkpt lat="43.42473" lon="5.29599">
        <ele>44</ele>
        <time>2014-04-19T09:34:47Z</time>
      </trkpt>
      <trkpt lat="43.42474" lon="5.29579">
        <ele>47</ele>
        <time>2014-04-19T09:35:02Z</time>
      </trkpt>
      <trkpt lat="43.42491" lon="5.2956">
        <ele>47</ele>
        <time>2014-04-19T09:35:21Z</time>
      </trkpt>
      <trkpt lat="43.42507" lon="5.29556">
        <ele>49</ele>
        <time>2014-04-19T09:35:34Z</time>
      </trkpt>
      <trkpt lat="43.42518" lon="5.29544">
        <ele>50</ele>
        <time>2014-04-19T09:35:45Z</time>
      </trkpt>
      <trkpt lat="43.42549" lon="5.29514">
        <ele>53</ele>
        <time>2014-04-19T09:36:19Z</time>
      </trkpt>
      <trkpt lat="43.42572" lon="5.29491">
        <ele>55</ele>
        <time>2014-04-19T09:36:38Z</time>
      </trkpt>
      <trkpt lat="43.42585" lon="5.29496">
        <ele>50</ele>
        <time>2014-04-19T09:36:59Z</time>
      </trkpt>
      <trkpt lat="43.42622" lon="5.29497">
        <ele>46</ele>
        <time>2014-04-19T09:37:35Z</time>
      </trkpt>
      <trkpt lat="43.4264" lon="5.29495">
        <ele>45</ele>
        <time>2014-04-19T09:37:53Z</time>
      </trkpt>
      <trkpt lat="43.42647" lon="5.29488">
        <ele>44</ele>
        <time>2014-04-19T09:37:59Z</time>
      </trkpt>
      <trkpt lat="43.42689" lon="5.29477">
        <ele>41</ele>
        <time>2014-04-19T09:38:34Z</time>
      </trkpt>
      <trkpt lat="43.4272" lon="5.29457">
        <ele>43</ele>
        <time>2014-04-19T09:39:04Z</time>
      </trkpt>
      <trkpt lat="43.42756" lon="5.2947">
        <ele>45</ele>
        <time>2014-04-19T09:39:40Z</time>
      </trkpt>
      <trkpt lat="43.42764" lon="5.29476">
        <ele>45</ele>
        <time>2014-04-19T09:39:47Z</time>
      </trkpt>
      <trkpt lat="43.42796" lon="5.29484">
        <ele>46</ele>
        <time>2014-04-19T09:40:24Z</time>
      </trkpt>
      <trkpt lat="43.42809" lon="5.29485">
        <ele>46</ele>
        <time>2014-04-19T09:40:32Z</time>
      </trkpt>
      <trkpt lat="43.42859" lon="5.29498">
        <ele>48</ele>
        <time>2014-04-19T09:41:05Z</time>
      </trkpt>
      <trkpt lat="43.4287" lon="5.295">
        <ele>48</ele>
        <time>2014-04-19T09:41:13Z</time>
      </trkpt>
      <trkpt lat="43.42894" lon="5.2951">
        <ele>48</ele>
        <time>2014-04-19T09:41:35Z</time>
      </trkpt>
      <trkpt lat="43.42934" lon="5.29498">
        <ele>50</ele>
        <time>2014-04-19T09:42:13Z</time>
      </trkpt>
      <trkpt lat="43.42967" lon="5.29505">
        <ele>54</ele>
        <time>2014-04-19T09:42:47Z</time>
      </trkpt>
      <trkpt lat="43.42981" lon="5.29516">
        <ele>56</ele>
        <time>2014-04-19T09:43:02Z</time>
      </trkpt>
      <trkpt lat="43.43023" lon="5.29545">
        <ele>58</ele>
        <time>2014-04-19T09:43:35Z</time>
      </trkpt>
      <trkpt lat="43.43055" lon="5.29555">
        <ele>59</ele>
        <time>2014-04-19T09:44:11Z</time>
      </trkpt>
      <trkpt lat="43.43088" lon="5.29598">
        <ele>56</ele>
        <time>2014-04-19T09:44:43Z</time>
      </trkpt>
      <trkpt lat="43.43127" lon="5.29617">
        <ele>52</ele>
        <time>2014-04-19T09:45:18Z</time>
      </trkpt>
      <trkpt lat="43.43141" lon="5.29624">
        <ele>52</ele>
        <time>2014-04-19T09:45:26Z</time>
      </trkpt>
      <trkpt lat="43.43184" lon="5.29646">
        <ele>56</ele>
        <time>2014-04-19T09:45:57Z</time>
      </trkpt>
      <trkpt lat="43.43211" lon="5.29672">
        <ele>57</ele>
        <time>2014-04-19T09:46:30Z</time>
      </trkpt>
      <trkpt lat="43.43227" lon="5.29718">
        <ele>57</ele>
        <time>2014-04-19T09:47:04Z</time>
      </trkpt>
      <trkpt lat="43.43222" lon="5.29734">
        <ele>56</ele>
        <time>2014-04-19T09:47:19Z</time>
      </trkpt>
      <trkpt lat="43.43228" lon="5.29748">
        <ele>56</ele>
        <time>2014-04-19T09:47:32Z</time>
      </trkpt>
      <trkpt lat="43.43244" lon="5.29754">
        <ele>57</ele>
        <time>2014-04-19T09:48:29Z</time>
      </trkpt>
      <trkpt lat="43.4325" lon="5.29755">
        <ele>57</ele>
        <time>2014-04-19T09:48:35Z</time>
      </trkpt>
      <trkpt lat="43.43257" lon="5.29754">
        <ele>56</ele>
        <time>2014-04-19T09:50:25Z</time>
      </trkpt>
      <trkpt lat="43.43287" lon="5.2974">
        <ele>57</ele>
        <time>2014-04-19T09:50:55Z</time>
      </trkpt>
      <trkpt lat="43.43324" lon="5.29733">
        <ele>58</ele>
        <time>2014-04-19T09:51:25Z</time>
      </trkpt>
      <trkpt lat="43.43352" lon="5.29743">
        <ele>62</ele>
        <time>2014-04-19T09:51:56Z</time>
      </trkpt>
      <trkpt lat="43.4339" lon="5.29729">
        <ele>65</ele>
        <time>2014-04-19T09:52:26Z</time>
      </trkpt>
      <trkpt lat="43.43427" lon="5.29721">
        <ele>68</ele>
        <time>2014-04-19T09:52:57Z</time>
      </trkpt>
      <trkpt lat="43.43465" lon="5.29708">
        <ele>77</ele>
        <time>2014-04-19T09:53:30Z</time>
      </trkpt>
      <trkpt lat="43.43482" lon="5.29708">
        <ele>78</ele>
        <time>2014-04-19T09:53:45Z</time>
      </trkpt>
      <trkpt lat="43.43513" lon="5.29683">
        <ele>84</ele>
        <time>2014-04-19T09:54:16Z</time>
      </trkpt>
      <trkpt lat="43.43545" lon="5.29654">
        <ele>88</ele>
        <time>2014-04-19T09:54:49Z</time>
      </trkpt>
      <trkpt lat="43.43557" lon="5.29649">
        <ele>89</ele>
        <time>2014-04-19T09:55:02Z</time>
      </trkpt>
      <trkpt lat="43.43562" lon="5.29651">
        <ele>87</ele>
        <time>2014-04-19T09:55:09Z</time>
      </trkpt>
      <trkpt lat="43.43583" lon="5.2969">
        <ele>86</ele>
        <time>2014-04-19T09:55:41Z</time>
      </trkpt>
      <trkpt lat="43.43609" lon="5.29735">
        <ele>85</ele>
        <time>2014-04-19T09:56:13Z</time>
      </trkpt>
      <trkpt lat="43.43627" lon="5.2975">
        <ele>85</ele>
        <time>2014-04-19T09:56:29Z</time>
      </trkpt>
      <trkpt lat="43.43675" lon="5.29761">
        <ele>85</ele>
        <time>2014-04-19T09:57:03Z</time>
      </trkpt>
      <trkpt lat="43.4371" lon="5.29727">
        <ele>85</ele>
        <time>2014-04-19T09:57:35Z</time>
      </trkpt>
      <trkpt lat="43.43731" lon="5.29711">
        <ele>87</ele>
        <time>2014-04-19T09:57:54Z</time>
      </trkpt>
      <trkpt lat="43.43774" lon="5.2971">
        <ele>84</ele>
        <time>2014-04-19T09:58:24Z</time>
      </trkpt>
      <trkpt lat="43.43815" lon="5.2972">
        <ele>81</ele>
        <time>2014-04-19T09:58:57Z</time>
      </trkpt>
      <trkpt lat="43.43848" lon="5.29733">
        <ele>83</ele>
        <time>2014-04-19T09:59:27Z</time>
      </trkpt>
      <trkpt lat="43.43858" lon="5.29747">
        <ele>86</ele>
        <time>2014-04-19T09:59:42Z</time>
      </trkpt>
      <trkpt lat="43.4385" lon="5.29778">
        <ele>90</ele>
        <time>2014-04-19T10:00:07Z</time>
      </trkpt>
      <trkpt lat="43.43852" lon="5.29788">
        <ele>91</ele>
        <time>2014-04-19T10:00:15Z</time>
      </trkpt>
      <trkpt lat="43.43855" lon="5.29796">
        <ele>92</ele>
        <time>2014-04-19T10:00:21Z</time>
      </trkpt>
      <trkpt lat="43.43854" lon="5.29821">
        <ele>94</ele>
        <time>2014-04-19T10:00:39Z</time>
      </trkpt>
      <trkpt lat="43.43874" lon="5.29854">
        <ele>96</ele>
        <time>2014-04-19T10:01:09Z</time>
      </trkpt>
      <trkpt lat="43.43878" lon="5.2987">
        <ele>98</ele>
        <time>2014-04-19T10:01:24Z</time>
      </trkpt>
      <trkpt lat="43.43882" lon="5.29873">
        <ele>98</ele>
        <time>2014-04-19T10:01:31Z</time>
      </trkpt>
      <trkpt lat="43.43884" lon="5.29882">
        <ele>97</ele>
        <time>2014-04-19T10:01:42Z</time>
      </trkpt>
      <trkpt lat="43.43884" lon="5.29888">
        <ele>96</ele>
        <time>2014-04-19T10:01:45Z</time>
      </trkpt>
      <trkpt lat="43.43875" lon="5.29917">
        <ele>97</ele>
        <time>2014-04-19T10:02:06Z</time>
      </trkpt>
      <trkpt lat="43.43877" lon="5.29925">
        <ele>98</ele>
        <time>2014-04-19T10:02:11Z</time>
      </trkpt>
      <trkpt lat="43.43897" lon="5.29951">
        <ele>99</ele>
        <time>2014-04-19T10:02:33Z</time>
      </trkpt>
      <trkpt lat="43.43935" lon="5.29975">
        <ele>102</ele>
        <time>2014-04-19T10:03:08Z</time>
      </trkpt>
      <trkpt lat="43.43944" lon="5.30022">
        <ele>106</ele>
        <time>2014-04-19T10:03:43Z</time>
      </trkpt>
      <trkpt lat="43.43952" lon="5.30075">
        <ele>111</ele>
        <time>2014-04-19T10:04:20Z</time>
      </trkpt>
      <trkpt lat="43.43957" lon="5.30124">
        <ele>116</ele>
        <time>2014-04-19T10:04:53Z</time>
      </trkpt>
      <trkpt lat="43.43959" lon="5.30173">
        <ele>119</ele>
        <time>2014-04-19T10:05:25Z</time>
      </trkpt>
      <trkpt lat="43.43947" lon="5.30185">
        <ele>120</ele>
        <time>2014-04-19T10:05:37Z</time>
      </trkpt>
      <trkpt lat="43.43937" lon="5.30215">
        <ele>122</ele>
        <time>2014-04-19T10:05:55Z</time>
      </trkpt>
      <trkpt lat="43.43908" lon="5.30233">
        <ele>124</ele>
        <time>2014-04-19T10:06:30Z</time>
      </trkpt>
      <trkpt lat="43.43884" lon="5.30268">
        <ele>127</ele>
        <time>2014-04-19T10:07:01Z</time>
      </trkpt>
      <trkpt lat="43.43873" lon="5.3029">
        <ele>128</ele>
        <time>2014-04-19T10:07:19Z</time>
      </trkpt>
      <trkpt lat="43.43868" lon="5.30307">
        <ele>128</ele>
        <time>2014-04-19T10:07:35Z</time>
      </trkpt>
      <trkpt lat="43.43867" lon="5.30336">
        <ele>130</ele>
        <time>2014-04-19T10:07:56Z</time>
      </trkpt>
      <trkpt lat="43.43851" lon="5.3036">
        <ele>131</ele>
        <time>2014-04-19T10:08:15Z</time>
      </trkpt>
      <trkpt lat="43.43812" lon="5.30375">
        <ele>132</ele>
        <time>2014-04-19T10:08:48Z</time>
      </trkpt>
      <trkpt lat="43.43767" lon="5.30394">
        <ele>134</ele>
        <time>2014-04-19T10:09:21Z</time>
      </trkpt>
      <trkpt lat="43.43739" lon="5.30427">
        <ele>135</ele>
        <time>2014-04-19T10:09:51Z</time>
      </trkpt>
      <trkpt lat="43.43734" lon="5.30446">
        <ele>134</ele>
        <time>2014-04-19T10:10:05Z</time>
      </trkpt>
      <trkpt lat="43.4372" lon="5.30451">
        <ele>134</ele>
        <time>2014-04-19T10:10:15Z</time>
      </trkpt>
      <trkpt lat="43.43681" lon="5.30477">
        <ele>134</ele>
        <time>2014-04-19T10:10:47Z</time>
      </trkpt>
      <trkpt lat="43.43665" lon="5.30498">
        <ele>133</ele>
        <time>2014-04-19T10:11:05Z</time>
      </trkpt>
      <trkpt lat="43.43627" lon="5.30518">
        <ele>131</ele>
        <time>2014-04-19T10:11:38Z</time>
      </trkpt>
      <trkpt lat="43.4362" lon="5.30522">
        <ele>131</ele>
        <time>2014-04-19T10:11:45Z</time>
      </trkpt>
      <trkpt lat="43.4358" lon="5.30528">
        <ele>127</ele>
        <time>2014-04-19T10:12:17Z</time>
      </trkpt>
      <trkpt lat="43.43543" lon="5.30552">
        <ele>124</ele>
        <time>2014-04-19T10:12:47Z</time>
      </trkpt>
      <trkpt lat="43.43521" lon="5.3057">
        <ele>121</ele>
        <time>2014-04-19T10:13:09Z</time>
      </trkpt>
      <trkpt lat="43.4351" lon="5.3058">
        <ele>120</ele>
        <time>2014-04-19T10:13:21Z</time>
      </trkpt>
      <trkpt lat="43.43487" lon="5.30619">
        <ele>120</ele>
        <time>2014-04-19T10:13:51Z</time>
      </trkpt>
      <trkpt lat="43.43457" lon="5.3065">
        <ele>119</ele>
        <time>2014-04-19T10:14:24Z</time>
      </trkpt>
      <trkpt lat="43.43434" lon="5.30667">
        <ele>117</ele>
        <time>2014-04-19T10:14:41Z</time>
      </trkpt>
      <trkpt lat="43.43426" lon="5.30686">
        <ele>118</ele>
        <time>2014-04-19T10:14:52Z</time>
      </trkpt>
      <trkpt lat="43.43396" lon="5.30725">
        <ele>118</ele>
        <time>2014-04-19T10:15:27Z</time>
      </trkpt>
      <trkpt lat="43.43362" lon="5.30746">
        <ele>118</ele>
        <time>2014-04-19T10:15:59Z</time>
      </trkpt>
      <trkpt lat="43.4336" lon="5.30772">
        <ele>118</ele>
        <time>2014-04-19T10:16:14Z</time>
      </trkpt>
      <trkpt lat="43.4336" lon="5.30798">
        <ele>119</ele>
        <time>2014-04-19T10:16:26Z</time>
      </trkpt>
      <trkpt lat="43.43348" lon="5.30815">
        <ele>117</ele>
        <time>2014-04-19T10:16:40Z</time>
      </trkpt>
      <trkpt lat="43.43319" lon="5.30855">
        <ele>118</ele>
        <time>2014-04-19T10:17:10Z</time>
      </trkpt>
      <trkpt lat="43.43314" lon="5.30866">
        <ele>117</ele>
        <time>2014-04-19T10:17:18Z</time>
      </trkpt>
      <trkpt lat="43.43306" lon="5.30877">
        <ele>117</ele>
        <time>2014-04-19T10:17:31Z</time>
      </trkpt>
      <trkpt lat="43.43306" lon="5.30894">
        <ele>118</ele>
        <time>2014-04-19T10:17:42Z</time>
      </trkpt>
      <trkpt lat="43.43304" lon="5.309">
        <ele>118</ele>
        <time>2014-04-19T10:17:46Z</time>
      </trkpt>
      <trkpt lat="43.43289" lon="5.30906">
        <ele>118</ele>
        <time>2014-04-19T10:17:57Z</time>
      </trkpt>
      <trkpt lat="43.43275" lon="5.3092">
        <ele>120</ele>
        <time>2014-04-19T10:18:11Z</time>
      </trkpt>
      <trkpt lat="43.43235" lon="5.30935">
        <ele>123</ele>
        <time>2014-04-19T10:18:42Z</time>
      </trkpt>
      <trkpt lat="43.43225" lon="5.30945">
        <ele>124</ele>
        <time>2014-04-19T10:18:51Z</time>
      </trkpt>
      <trkpt lat="43.43217" lon="5.30937">
        <ele>125</ele>
        <time>2014-04-19T10:18:59Z</time>
      </trkpt>
      <trkpt lat="43.43212" lon="5.30927">
        <ele>126</ele>
        <time>2014-04-19T10:19:05Z</time>
      </trkpt>
      <trkpt lat="43.43212" lon="5.30903">
        <ele>127</ele>
        <time>2014-04-19T10:19:19Z</time>
      </trkpt>
      <trkpt lat="43.43211" lon="5.30891">
        <ele>128</ele>
        <time>2014-04-19T10:19:29Z</time>
      </trkpt>
      <trkpt lat="43.43221" lon="5.30837">
        <ele>130</ele>
        <time>2014-04-19T10:20:01Z</time>
      </trkpt>
      <trkpt lat="43.43221" lon="5.30828">
        <ele>129</ele>
        <time>2014-04-19T10:20:05Z</time>
      </trkpt>
      <trkpt lat="43.43203" lon="5.3081">
        <ele>129</ele>
        <time>2014-04-19T10:20:27Z</time>
      </trkpt>
      <trkpt lat="43.43187" lon="5.3081">
        <ele>128</ele>
        <time>2014-04-19T10:20:35Z</time>
      </trkpt>
      <trkpt lat="43.43158" lon="5.30849">
        <ele>129</ele>
        <time>2014-04-19T10:21:08Z</time>
      </trkpt>
      <trkpt lat="43.43155" lon="5.30858">
        <ele>129</ele>
        <time>2014-04-19T10:21:13Z</time>
      </trkpt>
      <trkpt lat="43.43155" lon="5.30876">
        <ele>129</ele>
        <time>2014-04-19T10:21:22Z</time>
      </trkpt>
      <trkpt lat="43.43143" lon="5.30886">
        <ele>129</ele>
        <time>2014-04-19T10:21:35Z</time>
      </trkpt>
      <trkpt lat="43.43133" lon="5.30896">
        <ele>129</ele>
        <time>2014-04-19T10:21:45Z</time>
      </trkpt>
      <trkpt lat="43.43134" lon="5.30906">
        <ele>130</ele>
        <time>2014-04-19T10:21:50Z</time>
      </trkpt>
      <trkpt lat="43.43114" lon="5.30953">
        <ele>132</ele>
        <time>2014-04-19T10:22:22Z</time>
      </trkpt>
      <trkpt lat="43.43094" lon="5.3099">
        <ele>133</ele>
        <time>2014-04-19T10:22:50Z</time>
      </trkpt>
      <trkpt lat="43.43081" lon="5.30999">
        <ele>134</ele>
        <time>2014-04-19T10:23:00Z</time>
      </trkpt>
      <trkpt lat="43.43061" lon="5.31044">
        <ele>138</ele>
        <time>2014-04-19T10:23:32Z</time>
      </trkpt>
      <trkpt lat="43.43064" lon="5.31069">
        <ele>140</ele>
        <time>2014-04-19T10:23:48Z</time>
      </trkpt>
      <trkpt lat="43.43055" lon="5.31111">
        <ele>142</ele>
        <time>2014-04-19T10:24:13Z</time>
      </trkpt>
      <trkpt lat="43.4305" lon="5.31121">
        <ele>142</ele>
        <time>2014-04-19T10:24:21Z</time>
      </trkpt>
      <trkpt lat="43.43029" lon="5.31148">
        <ele>142</ele>
        <time>2014-04-19T10:24:56Z</time>
      </trkpt>
      <trkpt lat="43.43022" lon="5.31155">
        <ele>142</ele>
        <time>2014-04-19T10:25:03Z</time>
      </trkpt>
      <trkpt lat="43.43018" lon="5.31163">
        <ele>142</ele>
        <time>2014-04-19T10:25:08Z</time>
      </trkpt>
      <trkpt lat="43.42996" lon="5.31196">
        <ele>143</ele>
        <time>2014-04-19T10:25:41Z</time>
      </trkpt>
      <trkpt lat="43.42989" lon="5.31213">
        <ele>143</ele>
        <time>2014-04-19T10:25:54Z</time>
      </trkpt>
      <trkpt lat="43.42976" lon="5.31224">
        <ele>143</ele>
        <time>2014-04-19T10:26:07Z</time>
      </trkpt>
      <trkpt lat="43.42962" lon="5.31234">
        <ele>142</ele>
        <time>2014-04-19T10:26:23Z</time>
      </trkpt>
      <trkpt lat="43.42957" lon="5.31241">
        <ele>141</ele>
        <time>2014-04-19T10:26:28Z</time>
      </trkpt>
      <trkpt lat="43.42956" lon="5.31293">
        <ele>141</ele>
        <time>2014-04-19T10:27:01Z</time>
      </trkpt>
      <trkpt lat="43.4295" lon="5.31309">
        <ele>140</ele>
        <time>2014-04-19T10:27:12Z</time>
      </trkpt>
      <trkpt lat="43.42943" lon="5.31355">
        <ele>140</ele>
        <time>2014-04-19T10:27:43Z</time>
      </trkpt>
      <trkpt lat="43.42932" lon="5.31391">
        <ele>141</ele>
        <time>2014-04-19T10:28:08Z</time>
      </trkpt>
      <trkpt lat="43.42936" lon="5.31398">
        <ele>141</ele>
        <time>2014-04-19T10:28:14Z</time>
      </trkpt>
      <trkpt lat="43.42937" lon="5.31405">
        <ele>140</ele>
        <time>2014-04-19T10:28:47Z</time>
      </trkpt>
      <trkpt lat="43.4294" lon="5.3141">
        <ele>140</ele>
        <time>2014-04-19T10:31:26Z</time>
      </trkpt>
      <trkpt lat="43.4294" lon="5.31418">
        <ele>140</ele>
        <time>2014-04-19T10:31:33Z</time>
      </trkpt>
      <trkpt lat="43.42939" lon="5.31425">
        <ele>140</ele>
        <time>2014-04-19T10:31:40Z</time>
      </trkpt>
      <trkpt lat="43.42926" lon="5.31435">
        <ele>142</ele>
        <time>2014-04-19T10:32:06Z</time>
      </trkpt>
      <trkpt lat="43.42921" lon="5.31449">
        <ele>142</ele>
        <time>2014-04-19T10:32:22Z</time>
      </trkpt>
      <trkpt lat="43.4291" lon="5.31457">
        <ele>144</ele>
        <time>2014-04-19T10:32:36Z</time>
      </trkpt>
      <trkpt lat="43.42909" lon="5.31464">
        <ele>144</ele>
        <time>2014-04-19T10:32:50Z</time>
      </trkpt>
      <trkpt lat="43.4291" lon="5.31471">
        <ele>144</ele>
        <time>2014-04-19T10:32:57Z</time>
      </trkpt>
      <trkpt lat="43.42921" lon="5.31488">
        <ele>146</ele>
        <time>2014-04-19T10:33:27Z</time>
      </trkpt>
      <trkpt lat="43.42936" lon="5.31514">
        <ele>150</ele>
        <time>2014-04-19T10:33:58Z</time>
      </trkpt>
      <trkpt lat="43.42946" lon="5.31547">
        <ele>153</ele>
        <time>2014-04-19T10:34:22Z</time>
      </trkpt>
      <trkpt lat="43.42942" lon="5.31557">
        <ele>156</ele>
        <time>2014-04-19T10:36:36Z</time>
      </trkpt>
      <trkpt lat="43.42923" lon="5.31597">
        <ele>157</ele>
        <time>2014-04-19T10:37:10Z</time>
      </trkpt>
      <trkpt lat="43.42921" lon="5.31616">
        <ele>158</ele>
        <time>2014-04-19T10:37:20Z</time>
      </trkpt>
      <trkpt lat="43.42935" lon="5.31677">
        <ele>158</ele>
        <time>2014-04-19T10:37:55Z</time>
      </trkpt>
      <trkpt lat="43.4292" lon="5.31727">
        <ele>160</ele>
        <time>2014-04-19T10:38:30Z</time>
      </trkpt>
      <trkpt lat="43.42916" lon="5.31784">
        <ele>160</ele>
        <time>2014-04-19T10:39:05Z</time>
      </trkpt>
      <trkpt lat="43.4292" lon="5.31835">
        <ele>162</ele>
        <time>2014-04-19T10:39:39Z</time>
      </trkpt>
      <trkpt lat="43.42922" lon="5.31854">
        <ele>162</ele>
        <time>2014-04-19T10:39:51Z</time>
      </trkpt>
      <trkpt lat="43.42932" lon="5.31903">
        <ele>164</ele>
        <time>2014-04-19T10:40:21Z</time>
      </trkpt>
      <trkpt lat="43.42931" lon="5.31955">
        <ele>166</ele>
        <time>2014-04-19T10:40:52Z</time>
      </trkpt>
      <trkpt lat="43.42926" lon="5.31976">
        <ele>167</ele>
        <time>2014-04-19T10:41:06Z</time>
      </trkpt>
      <trkpt lat="43.42931" lon="5.31996">
        <ele>168</ele>
        <time>2014-04-19T10:41:17Z</time>
      </trkpt>
      <trkpt lat="43.42936" lon="5.32006">
        <ele>168</ele>
        <time>2014-04-19T10:41:24Z</time>
      </trkpt>
      <trkpt lat="43.42938" lon="5.32039">
        <ele>169</ele>
        <time>2014-04-19T10:41:48Z</time>
      </trkpt>
      <trkpt lat="43.42931" lon="5.32094">
        <ele>171</ele>
        <time>2014-04-19T10:42:18Z</time>
      </trkpt>
      <trkpt lat="43.42929" lon="5.32103">
        <ele>171</ele>
        <time>2014-04-19T10:42:24Z</time>
      </trkpt>
      <trkpt lat="43.42933" lon="5.32157">
        <ele>173</ele>
        <time>2014-04-19T10:42:55Z</time>
      </trkpt>
      <trkpt lat="43.42933" lon="5.32189">
        <ele>174</ele>
        <time>2014-04-19T10:43:15Z</time>
      </trkpt>
      <trkpt lat="43.42926" lon="5.32254">
        <ele>176</ele>
        <time>2014-04-19T10:43:49Z</time>
      </trkpt>
      <trkpt lat="43.42913" lon="5.32306">
        <ele>177</ele>
        <time>2014-04-19T10:44:21Z</time>
      </trkpt>
      <trkpt lat="43.42898" lon="5.32365">
        <ele>179</ele>
        <time>2014-04-19T10:44:54Z</time>
      </trkpt>
      <trkpt lat="43.42877" lon="5.32408">
        <ele>181</ele>
        <time>2014-04-19T10:45:24Z</time>
      </trkpt>
      <trkpt lat="43.42853" lon="5.32455">
        <ele>182</ele>
        <time>2014-04-19T10:45:58Z</time>
      </trkpt>
      <trkpt lat="43.42838" lon="5.32494">
        <ele>181</ele>
        <time>2014-04-19T10:46:28Z</time>
      </trkpt>
      <trkpt lat="43.42831" lon="5.32508">
        <ele>179</ele>
        <time>2014-04-19T10:46:36Z</time>
      </trkpt>
      <trkpt lat="43.42825" lon="5.32511">
        <ele>178</ele>
        <time>2014-04-19T10:46:43Z</time>
      </trkpt>
      <trkpt lat="43.42816" lon="5.32514">
        <ele>177</ele>
        <time>2014-04-19T10:47:00Z</time>
      </trkpt>
      <trkpt lat="43.42808" lon="5.32531">
        <ele>176</ele>
        <time>2014-04-19T10:47:15Z</time>
      </trkpt>
      <trkpt lat="43.42781" lon="5.32557">
        <ele>176</ele>
        <time>2014-04-19T10:47:47Z</time>
      </trkpt>
      <trkpt lat="43.42747" lon="5.3257">
        <ele>177</ele>
        <time>2014-04-19T10:48:20Z</time>
      </trkpt>
      <trkpt lat="43.42709" lon="5.32598">
        <ele>176</ele>
        <time>2014-04-19T10:48:54Z</time>
      </trkpt>
      <trkpt lat="43.42705" lon="5.32595">
        <ele>177</ele>
        <time>2014-04-19T10:48:59Z</time>
      </trkpt>
      <trkpt lat="43.42688" lon="5.32549">
        <ele>178</ele>
        <time>2014-04-19T10:49:32Z</time>
      </trkpt>
      <trkpt lat="43.42684" lon="5.32543">
        <ele>178</ele>
        <time>2014-04-19T10:49:37Z</time>
      </trkpt>
      <trkpt lat="43.4267" lon="5.32497">
        <ele>181</ele>
        <time>2014-04-19T10:50:08Z</time>
      </trkpt>
      <trkpt lat="43.42665" lon="5.32491">
        <ele>181</ele>
        <time>2014-04-19T10:50:16Z</time>
      </trkpt>
      <trkpt lat="43.42664" lon="5.32482">
        <ele>181</ele>
        <time>2014-04-19T10:50:22Z</time>
      </trkpt>
      <trkpt lat="43.42637" lon="5.32425">
        <ele>183</ele>
        <time>2014-04-19T10:50:57Z</time>
      </trkpt>
      <trkpt lat="43.42632" lon="5.32403">
        <ele>184</ele>
        <time>2014-04-19T10:51:08Z</time>
      </trkpt>
      <trkpt lat="43.4262" lon="5.32383">
        <ele>184</ele>
        <time>2014-04-19T10:51:19Z</time>
      </trkpt>
      <trkpt lat="43.42602" lon="5.32324">
        <ele>188</ele>
        <time>2014-04-19T10:51:50Z</time>
      </trkpt>
      <trkpt lat="43.42582" lon="5.32265">
        <ele>192</ele>
        <time>2014-04-19T10:52:23Z</time>
      </trkpt>
      <trkpt lat="43.42557" lon="5.32216">
        <ele>193</ele>
        <time>2014-04-19T10:52:56Z</time>
      </trkpt>
      <trkpt lat="43.42551" lon="5.32165">
        <ele>192</ele>
        <time>2014-04-19T10:53:23Z</time>
      </trkpt>
      <trkpt lat="43.42554" lon="5.32154">
        <ele>181</ele>
        <time>2014-04-19T10:53:48Z</time>
      </trkpt>
      <trkpt lat="43.42562" lon="5.32154">
        <ele>180</ele>
        <time>2014-04-19T10:53:54Z</time>
      </trkpt>
      <trkpt lat="43.42608" lon="5.32137">
        <ele>168</ele>
        <time>2014-04-19T10:54:28Z</time>
      </trkpt>
      <trkpt lat="43.42623" lon="5.32143">
        <ele>165</ele>
        <time>2014-04-19T10:54:42Z</time>
      </trkpt>
      <trkpt lat="43.42633" lon="5.3213">
        <ele>164</ele>
        <time>2014-04-19T10:54:52Z</time>
      </trkpt>
      <trkpt lat="43.42641" lon="5.32111">
        <ele>164</ele>
        <time>2014-04-19T10:55:02Z</time>
      </trkpt>
      <trkpt lat="43.42628" lon="5.32051">
        <ele>169</ele>
        <time>2014-04-19T10:55:33Z</time>
      </trkpt>
      <trkpt lat="43.42621" lon="5.32034">
        <ele>170</ele>
        <time>2014-04-19T10:55:44Z</time>
      </trkpt>
      <trkpt lat="43.42607" lon="5.31985">
        <ele>176</ele>
        <time>2014-04-19T10:56:18Z</time>
      </trkpt>
      <trkpt lat="43.42589" lon="5.31929">
        <ele>183</ele>
        <time>2014-04-19T10:56:50Z</time>
      </trkpt>
      <trkpt lat="43.42582" lon="5.31915">
        <ele>186</ele>
        <time>2014-04-19T10:57:01Z</time>
      </trkpt>
      <trkpt lat="43.4257" lon="5.31907">
        <ele>188</ele>
        <time>2014-04-19T10:57:11Z</time>
      </trkpt>
      <trkpt lat="43.42565" lon="5.319">
        <ele>191</ele>
        <time>2014-04-19T10:57:19Z</time>
      </trkpt>
      <trkpt lat="43.4255" lon="5.31852">
        <ele>197</ele>
        <time>2014-04-19T10:57:48Z</time>
      </trkpt>
      <trkpt lat="43.42514" lon="5.31814">
        <ele>205</ele>
        <time>2014-04-19T10:58:21Z</time>
      </trkpt>
      <trkpt lat="43.42509" lon="5.31809">
        <ele>206</ele>
        <time>2014-04-19T10:58:27Z</time>
      </trkpt>
      <trkpt lat="43.42488" lon="5.31806">
        <ele>207</ele>
        <time>2014-04-19T10:58:42Z</time>
      </trkpt>
      <trkpt lat="43.42476" lon="5.31797">
        <ele>206</ele>
        <time>2014-04-19T10:58:49Z</time>
      </trkpt>
      <trkpt lat="43.42439" lon="5.31779">
        <ele>208</ele>
        <time>2014-04-19T10:59:19Z</time>
      </trkpt>
      <trkpt lat="43.42417" lon="5.3177">
        <ele>208</ele>
        <time>2014-04-19T10:59:34Z</time>
      </trkpt>
      <trkpt lat="43.42404" lon="5.31778">
        <ele>202</ele>
        <time>2014-04-19T10:59:45Z</time>
      </trkpt>
      <trkpt lat="43.42357" lon="5.31754">
        <ele>204</ele>
        <time>2014-04-19T11:00:17Z</time>
      </trkpt>
      <trkpt lat="43.42339" lon="5.31737">
        <ele>202</ele>
        <time>2014-04-19T11:00:35Z</time>
      </trkpt>
      <trkpt lat="43.42332" lon="5.3172">
        <ele>203</ele>
        <time>2014-04-19T11:00:44Z</time>
      </trkpt>
      <trkpt lat="43.42292" lon="5.31686">
        <ele>203</ele>
        <time>2014-04-19T11:01:18Z</time>
      </trkpt>
      <trkpt lat="43.42263" lon="5.3164">
        <ele>206</ele>
        <time>2014-04-19T11:01:52Z</time>
      </trkpt>
      <trkpt lat="43.42249" lon="5.31612">
        <ele>208</ele>
        <time>2014-04-19T11:02:08Z</time>
      </trkpt>
      <trkpt lat="43.4224" lon="5.31573">
        <ele>211</ele>
        <time>2014-04-19T11:02:40Z</time>
      </trkpt>
      <trkpt lat="43.42234" lon="5.31565">
        <ele>212</ele>
        <time>2014-04-19T11:02:46Z</time>
      </trkpt>
      <trkpt lat="43.42216" lon="5.31524">
        <ele>217</ele>
        <time>2014-04-19T11:03:16Z</time>
      </trkpt>
      <trkpt lat="43.422" lon="5.31476">
        <ele>223</ele>
        <time>2014-04-19T11:03:50Z</time>
      </trkpt>
      <trkpt lat="43.42147" lon="5.3145">
        <ele>215</ele>
        <time>2014-04-19T11:04:12Z</time>
      </trkpt>
      <trkpt lat="43.42139" lon="5.31454">
        <ele>215</ele>
        <time>2014-04-19T11:04:17Z</time>
      </trkpt>
      <trkpt lat="43.42117" lon="5.31453">
        <ele>214</ele>
        <time>2014-04-19T11:04:32Z</time>
      </trkpt>
      <trkpt lat="43.42113" lon="5.3147">
        <ele>207</ele>
        <time>2014-04-19T11:04:45Z</time>
      </trkpt>
      <trkpt lat="43.42106" lon="5.31473">
        <ele>204</ele>
        <time>2014-04-19T11:04:53Z</time>
      </trkpt>
      <trkpt lat="43.42069" lon="5.31466">
        <ele>197</ele>
        <time>2014-04-19T11:05:16Z</time>
      </trkpt>
      <trkpt lat="43.42026" lon="5.31497">
        <ele>191</ele>
        <time>2014-04-19T11:05:53Z</time>
      </trkpt>
      <trkpt lat="43.42002" lon="5.31536">
        <ele>181</ele>
        <time>2014-04-19T11:06:26Z</time>
      </trkpt>
      <trkpt lat="43.41991" lon="5.31545">
        <ele>176</ele>
        <time>2014-04-19T11:06:44Z</time>
      </trkpt>
      <trkpt lat="43.4198" lon="5.31539">
        <ele>174</ele>
        <time>2014-04-19T11:06:56Z</time>
      </trkpt>
      <trkpt lat="43.41942" lon="5.31546">
        <ele>170</ele>
        <time>2014-04-19T11:07:31Z</time>
      </trkpt>
      <trkpt lat="43.41897" lon="5.31539">
        <ele>166</ele>
        <time>2014-04-19T11:08:04Z</time>
      </trkpt>
      <trkpt lat="43.4185" lon="5.31546">
        <ele>162</ele>
        <time>2014-04-19T11:08:36Z</time>
      </trkpt>
      <trkpt lat="43.41808" lon="5.31562">
        <ele>162</ele>
        <time>2014-04-19T11:09:08Z</time>
      </trkpt>
      <trkpt lat="43.41768" lon="5.31592">
        <ele>161</ele>
        <time>2014-04-19T11:09:43Z</time>
      </trkpt>
      <trkpt lat="43.41725" lon="5.31621">
        <ele>158</ele>
        <time>2014-04-19T11:10:15Z</time>
      </trkpt>
      <trkpt lat="43.41692" lon="5.31646">
        <ele>156</ele>
        <time>2014-04-19T11:10:47Z</time>
      </trkpt>
      <trkpt lat="43.41662" lon="5.31668">
        <ele>150</ele>
        <time>2014-04-19T11:11:26Z</time>
      </trkpt>
      <trkpt lat="43.41647" lon="5.31684">
        <ele>145</ele>
        <time>2014-04-19T11:12:28Z</time>
      </trkpt>
      <trkpt lat="43.41638" lon="5.31693">
        <ele>140</ele>
        <time>2014-04-19T11:17:51Z</time>
      </trkpt>
      <trkpt lat="43.41633" lon="5.31701">
        <ele>140</ele>
        <time>2014-04-19T11:18:00Z</time>
      </trkpt>
      <trkpt lat="43.41625" lon="5.31705">
        <ele>140</ele>
        <time>2014-04-19T11:18:08Z</time>
      </trkpt>
      <trkpt lat="43.4161" lon="5.31734">
        <ele>139</ele>
        <time>2014-04-19T11:18:31Z</time>
      </trkpt>
    </trkseg>
  </trk>
</gpx>